createdAt,value
2022-09-11T00:01:29.303Z,6.30
2022-09-11T00:03:31.650Z,6.77
2022-09-11T00:05:39.017Z,6.47
2022-09-11T00:07:41.035Z,7.87
2022-09-11T00:09:43.011Z,7.57
2022-09-11T00:11:45.159Z,6.57
2022-09-11T00:13:51.790Z,6.80
2022-09-11T00:15:54.177Z,7.57
2022-09-11T00:17:57.439Z,7.83
2022-09-11T00:20:00.947Z,10.23
2022-09-11T00:22:03.098Z,8.63
2022-09-11T00:24:05.538Z,9.37
2022-09-11T00:26:07.792Z,18.47
2022-09-11T00:28:16.019Z,8.70
2022-09-11T00:30:18.513Z,10.60
2022-09-11T00:32:20.989Z,7.17
2022-09-11T00:34:22.999Z,11.20
2022-09-11T00:36:31.207Z,11.10
2022-09-11T00:38:36.605Z,7.90
2022-09-11T00:40:48.187Z,13.73
2022-09-11T00:42:54.192Z,10.93
2022-09-11T00:45:00.543Z,10.20
2022-09-11T00:47:06.359Z,12.13
2022-09-11T00:49:45.683Z,11.00
2022-09-11T00:51:53.215Z,11.20
2022-09-11T00:53:57.340Z,15.93
2022-09-11T00:56:02.647Z,17.20
2022-09-11T00:58:13.201Z,9.17
2022-09-11T01:00:15.773Z,12.87
2022-09-11T01:02:23.217Z,11.67
2022-09-11T01:04:29.273Z,13.60
2022-09-11T01:06:32.475Z,14.23
2022-09-11T01:08:38.209Z,16.67
2022-09-11T01:11:00.112Z,12.57
2022-09-11T01:13:33.572Z,10.50
2022-09-11T01:15:35.545Z,17.57
2022-09-11T01:17:56.037Z,12.40
2022-09-11T01:20:18.863Z,13.93
2022-09-11T01:22:50.159Z,16.20
2022-09-11T01:25:10.681Z,13.97
2022-09-11T01:27:37.411Z,15.47
2022-09-11T01:29:55.491Z,12.73
2022-09-11T01:32:01.251Z,12.50
2022-09-11T01:34:15.999Z,12.73
2022-09-11T01:36:21.186Z,15.40
2022-09-11T01:38:35.017Z,13.30
2022-09-11T01:40:46.064Z,14.17
2022-09-11T01:42:52.088Z,12.60
2022-09-11T01:44:57.519Z,13.37
2022-09-11T01:47:02.730Z,14.47
2022-09-11T01:49:13.220Z,13.90
2022-09-11T01:51:18.571Z,18.10
2022-09-11T01:53:24.069Z,17.20
2022-09-11T01:55:34.727Z,14.40
2022-09-11T01:57:42.339Z,14.83
2022-09-11T01:59:48.427Z,12.40
2022-09-11T02:01:55.354Z,15.57
2022-09-11T02:04:18.057Z,17.00
2022-09-11T02:06:33.146Z,14.67
2022-09-11T02:08:44.141Z,16.03
2022-09-11T02:10:52.176Z,13.00
2022-09-11T02:13:04.687Z,17.70
2022-09-11T02:15:08.190Z,15.73
2022-09-11T02:17:24.696Z,15.07
2022-09-11T02:19:28.961Z,12.80
2022-09-11T02:21:32.411Z,14.30
2022-09-11T02:23:34.473Z,17.87
2022-09-11T02:25:36.805Z,17.10
2022-09-11T02:27:40.786Z,20.30
2022-09-11T02:29:43.056Z,18.17
2022-09-11T02:31:45.765Z,16.63
2022-09-11T02:33:49.097Z,17.30
2022-09-11T02:35:52.928Z,15.67
2022-09-11T02:38:00.511Z,18.57
2022-09-11T02:40:42.362Z,19.50
2022-09-11T02:42:48.346Z,14.77
2022-09-11T02:44:53.665Z,15.97
2022-09-11T02:47:08.099Z,18.23
2022-09-11T02:49:26.593Z,17.77
2022-09-11T02:51:34.977Z,19.30
2022-09-11T02:53:49.613Z,18.23
2022-09-11T02:56:09.796Z,22.67
2022-09-11T02:58:29.504Z,19.37
2022-09-11T03:00:32.391Z,16.77
2022-09-11T03:02:38.838Z,18.67
2022-09-11T03:04:42.173Z,22.50
2022-09-11T03:06:44.975Z,19.07
2022-09-11T03:08:50.013Z,20.50
2022-09-11T03:10:54.659Z,24.17
2022-09-11T03:12:58.671Z,18.80
2022-09-11T03:15:01.871Z,17.80
2022-09-11T03:17:05.263Z,16.60
2022-09-11T03:19:07.819Z,16.57
2022-09-11T03:21:11.524Z,17.33
2022-09-11T03:23:14.402Z,20.87
2022-09-11T03:25:16.755Z,15.10
2022-09-11T03:27:19.149Z,16.20
2022-09-11T03:29:21.831Z,17.57
2022-09-11T03:31:24.319Z,17.03
2022-09-11T03:33:26.575Z,20.50
2022-09-11T03:35:29.064Z,15.50
2022-09-11T03:37:31.340Z,15.63
2022-09-11T03:39:34.820Z,14.13
2022-09-11T03:41:36.869Z,17.20
2022-09-11T03:43:40.192Z,16.27
2022-09-11T03:45:44.704Z,20.03
2022-09-11T03:47:48.530Z,19.90
2022-09-11T03:49:51.280Z,16.33
2022-09-11T03:51:53.273Z,16.90
2022-09-11T03:53:55.947Z,17.47
2022-09-11T03:55:58.552Z,19.40
2022-09-11T03:58:00.587Z,17.73
2022-09-11T04:00:03.993Z,25.83
2022-09-11T04:02:24.107Z,20.90
2022-09-11T04:04:29.092Z,17.30
2022-09-11T04:06:33.057Z,19.00
2022-09-11T04:08:35.601Z,19.43
2022-09-11T04:10:39.102Z,16.30
2022-09-11T04:12:44.479Z,16.50
2022-09-11T04:14:46.778Z,18.60
2022-09-11T04:16:49.035Z,21.90
2022-09-11T04:18:54.443Z,16.53
2022-09-11T04:20:58.854Z,19.20
2022-09-11T04:23:01.030Z,19.67
2022-09-11T04:25:06.405Z,19.23
2022-09-11T04:27:09.263Z,19.13
2022-09-11T04:29:11.215Z,17.13
2022-09-11T04:31:14.820Z,18.57
2022-09-11T04:33:17.179Z,16.03
2022-09-11T04:35:19.441Z,20.20
2022-09-11T04:37:30.671Z,18.50
2022-09-11T04:39:32.815Z,21.57
2022-09-11T04:41:34.897Z,24.40
2022-09-11T04:43:39.645Z,32.40
2022-09-11T04:45:43.434Z,29.40
2022-09-11T04:47:46.862Z,34.63
2022-09-11T04:49:49.748Z,42.00
2022-09-11T04:51:51.747Z,40.10
2022-09-11T04:53:57.728Z,46.23
2022-09-11T04:56:09.176Z,52.43
2022-09-11T04:58:17.087Z,53.30
2022-09-11T05:00:19.234Z,46.00
2022-09-11T05:02:22.237Z,44.20
2022-09-11T05:04:28.040Z,44.13
2022-09-11T05:06:31.162Z,44.33
2022-09-11T05:08:36.747Z,49.60
2022-09-11T05:10:42.362Z,51.10
2022-09-11T05:12:44.959Z,47.87
2022-09-11T05:14:47.049Z,49.40
2022-09-11T05:16:49.397Z,57.07
2022-09-11T05:18:54.692Z,58.90
2022-09-11T05:21:02.071Z,52.37
2022-09-11T05:23:04.403Z,59.20
2022-09-11T05:25:06.713Z,60.37
2022-09-11T05:27:09.818Z,68.13
2022-09-11T05:29:15.001Z,54.70
2022-09-11T05:31:34.509Z,51.90
2022-09-11T05:33:37.184Z,61.93
2022-09-11T05:35:39.298Z,49.60
2022-09-11T05:37:41.451Z,53.73
2022-09-11T05:39:45.313Z,53.30
2022-09-11T05:41:53.076Z,48.87
2022-09-11T05:43:55.201Z,57.77
2022-09-11T05:45:59.270Z,55.40
2022-09-11T05:48:04.429Z,47.77
2022-09-11T05:50:10.965Z,54.57
2022-09-11T05:52:13.773Z,62.80
2022-09-11T05:54:16.842Z,53.57
2022-09-11T05:56:22.450Z,66.23
2022-09-11T05:58:31.773Z,61.80
2022-09-11T06:00:33.924Z,66.73
2022-09-11T06:02:35.943Z,58.20
2022-09-11T06:04:38.321Z,53.93
2022-09-11T06:06:41.846Z,45.10
2022-09-11T06:08:44.526Z,46.83
2022-09-11T06:10:46.794Z,49.13
2022-09-11T06:12:49.506Z,61.33
2022-09-11T06:14:51.520Z,57.93
2022-09-11T06:16:57.323Z,57.27
2022-09-11T06:19:02.205Z,51.53
2022-09-11T06:21:07.251Z,57.67
2022-09-11T06:23:15.888Z,60.53
2022-09-11T06:25:18.481Z,52.27
2022-09-11T06:27:20.543Z,55.50
2022-09-11T06:29:24.863Z,56.43
2022-09-11T06:31:27.573Z,58.80
2022-09-11T06:33:34.405Z,51.87
2022-09-11T06:35:36.509Z,46.97
2022-09-11T06:37:38.854Z,53.70
2022-09-11T06:39:43.303Z,60.33
2022-09-11T06:41:53.346Z,49.77
2022-09-11T06:44:01.265Z,46.63
2022-09-11T06:46:12.294Z,52.23
2022-09-11T06:48:18.975Z,59.37
2022-09-11T06:50:23.564Z,61.73
2022-09-11T06:52:43.000Z,53.17
2022-09-11T06:55:05.327Z,51.10
2022-09-11T06:57:07.524Z,46.80
2022-09-11T06:59:10.853Z,50.60
2022-09-11T07:01:14.831Z,50.47
2022-09-11T07:03:18.139Z,50.23
2022-09-11T07:05:25.723Z,47.77
2022-09-11T07:07:28.507Z,50.17
2022-09-11T07:09:30.845Z,49.23
2022-09-11T07:11:34.705Z,50.40
2022-09-11T07:13:38.211Z,50.00
2022-09-11T07:15:42.202Z,48.43
2022-09-11T07:17:44.397Z,49.60
2022-09-11T07:19:48.505Z,47.97
2022-09-11T07:21:52.046Z,47.13
2022-09-11T07:23:57.366Z,49.90
2022-09-11T07:26:02.637Z,44.60
2022-09-11T07:28:05.631Z,45.43
2022-09-11T07:30:08.754Z,44.43
2022-09-11T07:32:13.853Z,41.27
2022-09-11T07:34:16.607Z,43.30
2022-09-11T07:36:25.417Z,38.80
2022-09-11T07:38:30.019Z,35.33
2022-09-11T07:40:32.236Z,36.60
2022-09-11T07:42:35.880Z,32.17
2022-09-11T07:44:37.958Z,37.00
2022-09-11T07:46:41.513Z,39.87
2022-09-11T07:48:45.550Z,35.70
2022-09-11T07:51:04.473Z,37.07
2022-09-11T07:53:07.240Z,34.07
2022-09-11T07:55:10.128Z,32.90
2022-09-11T07:57:13.035Z,30.40
2022-09-11T07:59:18.181Z,30.77
2022-09-11T08:01:25.514Z,28.00
2022-09-11T08:03:31.321Z,28.87
2022-09-11T08:05:33.544Z,29.43
2022-09-11T08:07:35.960Z,32.07
2022-09-11T08:09:39.200Z,26.83
2022-09-11T08:11:44.794Z,29.57
2022-09-11T08:13:51.257Z,27.17
2022-09-11T08:15:55.227Z,28.87
2022-09-11T08:17:57.949Z,28.53
2022-09-11T08:20:00.588Z,29.90
2022-09-11T08:22:03.059Z,25.23
2022-09-11T08:24:13.168Z,26.40
2022-09-11T08:26:18.910Z,22.77
2022-09-11T08:28:21.981Z,24.80
2022-09-11T08:30:24.273Z,29.13
2022-09-11T08:32:26.400Z,23.50
2022-09-11T08:34:29.269Z,29.53
2022-09-11T08:36:31.420Z,24.20
2022-09-11T08:38:34.174Z,24.00
2022-09-11T08:40:38.158Z,25.10
2022-09-11T08:42:43.501Z,26.03
2022-09-11T08:44:49.535Z,27.90
2022-09-11T08:47:19.212Z,27.60
2022-09-11T08:49:29.676Z,29.20
2022-09-11T08:51:32.467Z,29.17
2022-09-11T08:53:36.557Z,23.07
2022-09-11T08:55:43.875Z,30.97
2022-09-11T08:57:55.652Z,25.70
2022-09-11T09:00:16.146Z,21.80
2022-09-11T09:02:29.181Z,21.77
2022-09-11T09:05:06.438Z,22.70
2022-09-11T09:07:21.227Z,25.73
2022-09-11T09:09:56.596Z,25.57
2022-09-11T09:12:41.406Z,24.00
2022-09-11T09:15:21.063Z,23.30
2022-09-11T09:18:23.775Z,23.97
2022-09-11T09:20:57.047Z,26.73
2022-09-11T09:23:02.615Z,25.30
2022-09-11T09:25:11.036Z,22.67
2022-09-11T09:27:23.327Z,25.57
2022-09-11T09:29:37.650Z,20.90
2022-09-11T09:31:42.881Z,24.20
2022-09-11T09:33:50.104Z,27.60
2022-09-11T09:35:54.327Z,24.90
2022-09-11T09:37:59.790Z,21.47
2022-09-11T09:40:06.034Z,24.00
2022-09-11T09:42:34.562Z,21.87
2022-09-11T09:44:57.508Z,24.37
2022-09-11T09:46:59.729Z,24.53
2022-09-11T09:49:02.185Z,23.23
2022-09-11T09:51:04.322Z,26.20
2022-09-11T09:53:18.143Z,23.20
2022-09-11T09:55:20.830Z,22.20
2022-09-11T09:57:36.934Z,22.80
2022-09-11T09:59:53.240Z,26.10
2022-09-11T10:01:55.442Z,24.97
2022-09-11T10:04:27.076Z,25.13
2022-09-11T10:06:29.127Z,30.47
2022-09-11T10:08:36.213Z,25.37
2022-09-11T10:10:40.499Z,26.73
2022-09-11T10:12:45.393Z,28.57
2022-09-11T10:14:58.970Z,23.53
2022-09-11T10:17:02.022Z,27.17
2022-09-11T10:19:04.248Z,26.27
2022-09-11T10:21:12.399Z,27.83
2022-09-11T10:23:29.650Z,25.93
2022-09-11T10:25:47.855Z,29.60
2022-09-11T10:27:59.410Z,29.57
2022-09-11T10:30:04.046Z,30.67
2022-09-11T10:32:06.799Z,25.70
2022-09-11T10:34:15.521Z,25.87
2022-09-11T10:36:23.678Z,28.30
2022-09-11T10:38:37.006Z,26.20
2022-09-11T10:40:47.295Z,25.60
2022-09-11T10:42:50.444Z,22.53
2022-09-11T10:44:53.739Z,22.67
2022-09-11T10:47:14.055Z,26.63
2022-09-11T10:49:21.917Z,29.33
2022-09-11T10:51:26.181Z,25.90
2022-09-11T10:53:29.011Z,26.47
2022-09-11T10:55:35.460Z,30.30
2022-09-11T10:57:44.221Z,26.60
2022-09-11T10:59:57.714Z,24.50
2022-09-11T11:01:59.823Z,25.93
2022-09-11T11:04:01.909Z,25.73
2022-09-11T11:06:45.757Z,22.13
2022-09-11T11:09:04.323Z,26.93
2022-09-11T11:11:22.341Z,24.80
2022-09-11T11:13:43.267Z,26.73
2022-09-11T11:15:58.508Z,20.93
2022-09-11T11:18:23.359Z,25.77
2022-09-11T11:20:37.563Z,24.00
2022-09-11T11:22:58.391Z,17.60
2022-09-11T11:25:08.435Z,21.87
2022-09-11T11:27:43.293Z,19.00
2022-09-11T11:30:08.775Z,20.23
2022-09-11T11:32:24.582Z,20.10
2022-09-11T11:35:01.398Z,17.80
2022-09-11T11:37:10.954Z,18.80
2022-09-11T11:39:37.415Z,19.63
2022-09-11T11:41:44.603Z,21.00
2022-09-11T11:43:48.387Z,22.60
2022-09-11T11:45:57.820Z,16.53
2022-09-11T11:48:09.175Z,23.40
2022-09-11T11:50:11.672Z,15.80
2022-09-11T11:53:10.371Z,14.63
2022-09-11T11:55:18.641Z,17.40
2022-09-11T11:57:22.388Z,14.80
2022-09-11T11:59:31.220Z,14.30
2022-09-11T12:01:37.159Z,14.00
2022-09-11T12:03:45.269Z,16.23
2022-09-11T12:05:47.777Z,11.67
2022-09-11T12:07:50.792Z,15.00
2022-09-11T12:09:57.477Z,13.87
2022-09-11T12:12:04.692Z,14.93
2022-09-11T12:14:07.512Z,15.03
2022-09-11T12:16:21.878Z,13.43
2022-09-11T12:18:25.336Z,13.23
2022-09-11T12:20:31.878Z,13.13
2022-09-11T12:22:38.583Z,11.57
2022-09-11T12:24:58.618Z,14.00
2022-09-11T12:27:35.125Z,14.87
2022-09-11T12:30:18.550Z,11.07
2022-09-11T12:32:29.088Z,12.40
2022-09-11T12:34:54.911Z,11.30
2022-09-11T12:37:06.990Z,11.03
2022-09-11T12:39:25.636Z,12.60
2022-09-11T12:41:31.530Z,13.47
2022-09-11T12:43:36.433Z,12.93
2022-09-11T12:45:38.771Z,12.00
2022-09-11T12:47:41.148Z,13.37
2022-09-11T12:49:53.075Z,10.87
2022-09-11T12:51:57.192Z,12.40
2022-09-11T12:54:05.225Z,14.03
2022-09-11T12:56:07.733Z,10.93
2022-09-11T12:58:21.679Z,10.27
2022-09-11T13:00:36.281Z,13.17
2022-09-11T13:02:42.514Z,13.50
2022-09-11T13:04:45.594Z,12.20
2022-09-11T13:06:51.945Z,11.57
2022-09-11T13:09:00.004Z,9.23
2022-09-11T13:11:40.322Z,9.27
2022-09-11T13:13:47.024Z,8.40
2022-09-11T13:15:52.487Z,10.63
2022-09-11T13:17:54.718Z,9.17
2022-09-11T13:20:09.961Z,12.43
2022-09-11T13:22:31.210Z,10.50
2022-09-11T13:24:38.859Z,9.90
2022-09-11T13:26:42.176Z,8.07
2022-09-11T13:28:46.910Z,10.20
2022-09-11T13:31:02.269Z,8.00
2022-09-11T13:33:08.979Z,9.03
2022-09-11T13:35:17.008Z,12.30
2022-09-11T13:37:32.592Z,8.53
2022-09-11T13:39:36.570Z,8.47
2022-09-11T13:41:43.772Z,11.37
2022-09-11T13:43:56.293Z,6.43
2022-09-11T13:46:15.538Z,6.93
2022-09-11T13:48:24.115Z,8.50
2022-09-11T13:50:26.271Z,10.10
2022-09-11T13:52:31.528Z,11.20
2022-09-11T13:54:38.301Z,8.37
2022-09-11T13:56:55.673Z,7.10
2022-09-11T13:59:02.238Z,6.73
2022-09-11T14:01:12.520Z,6.77
2022-09-11T14:03:29.582Z,6.73
2022-09-11T14:05:32.650Z,6.87
2022-09-11T14:07:42.714Z,6.87
2022-09-11T14:09:59.642Z,6.87
2022-09-11T14:12:05.035Z,8.10
2022-09-11T14:14:34.222Z,8.23
2022-09-11T14:16:45.752Z,6.80
2022-09-11T14:18:48.251Z,7.23
2022-09-11T14:20:50.602Z,6.27
2022-09-11T14:22:54.711Z,8.67
2022-09-11T14:25:05.432Z,10.13
2022-09-11T14:27:34.843Z,5.63
2022-09-11T14:29:37.513Z,6.57
2022-09-11T14:31:41.514Z,8.07
2022-09-11T14:33:43.850Z,7.93
2022-09-11T14:35:47.225Z,7.10
2022-09-11T14:37:49.883Z,7.47
2022-09-11T14:39:56.864Z,7.70
2022-09-11T14:41:59.980Z,6.73
2022-09-11T14:44:02.471Z,7.40
2022-09-11T14:46:04.569Z,7.50
2022-09-11T14:48:14.386Z,7.73
2022-09-11T14:50:16.796Z,8.80
2022-09-11T14:52:21.246Z,5.60
2022-09-11T14:54:23.364Z,9.73
2022-09-11T14:56:25.584Z,9.20
2022-09-11T14:58:28.621Z,6.17
2022-09-11T15:00:32.215Z,7.10
2022-09-11T15:02:34.327Z,6.90
2022-09-11T15:04:36.644Z,11.40
2022-09-11T15:06:38.671Z,8.97
2022-09-11T15:08:40.667Z,6.57
2022-09-11T15:10:42.924Z,5.90
2022-09-11T15:12:44.914Z,6.00
2022-09-11T15:14:59.107Z,6.20
2022-09-11T15:17:06.952Z,6.60
2022-09-11T15:19:09.578Z,6.30
2022-09-11T15:21:11.651Z,8.37
2022-09-11T15:23:13.857Z,6.73
2022-09-11T15:25:16.029Z,7.80
2022-09-11T15:27:19.251Z,7.73
2022-09-11T15:29:22.095Z,6.63
2022-09-11T15:31:25.072Z,8.37
2022-09-11T15:33:28.078Z,9.60
2022-09-11T15:35:32.923Z,7.40
2022-09-11T15:37:35.704Z,13.00
2022-09-11T15:39:37.849Z,6.47
2022-09-11T15:41:40.037Z,5.90
2022-09-11T15:43:44.951Z,5.83
2022-09-11T15:45:47.354Z,7.73
2022-09-11T15:47:49.398Z,6.93
2022-09-11T15:49:51.782Z,8.63
2022-09-11T15:51:54.724Z,9.93
2022-09-11T15:54:00.357Z,7.37
2022-09-11T15:56:06.454Z,8.50
2022-09-11T15:58:08.509Z,9.43
2022-09-11T16:00:11.166Z,8.73
2022-09-11T16:02:18.793Z,10.73
2022-09-11T16:04:21.941Z,8.00
2022-09-11T16:06:25.982Z,10.90
2022-09-11T16:08:28.320Z,8.67
2022-09-11T16:10:30.429Z,8.73
2022-09-11T16:12:33.769Z,8.93
2022-09-11T16:14:38.378Z,8.43
2022-09-11T16:16:40.566Z,9.10
2022-09-11T16:18:43.048Z,9.13
2022-09-11T16:20:45.111Z,7.53
2022-09-11T16:22:47.129Z,8.30
2022-09-11T16:24:49.099Z,7.60
2022-09-11T16:26:54.433Z,9.10
2022-09-11T16:28:56.755Z,11.60
2022-09-11T16:30:59.121Z,9.50
2022-09-11T16:33:02.274Z,8.83
2022-09-11T16:35:04.896Z,9.30
2022-09-11T16:37:06.912Z,9.50
2022-09-11T16:39:17.120Z,7.50
2022-09-11T16:41:22.079Z,14.30
2022-09-11T16:43:25.026Z,7.63
2022-09-11T16:45:28.502Z,10.83
2022-09-11T16:47:30.626Z,10.30
2022-09-11T16:49:50.413Z,14.97
2022-09-11T16:51:57.437Z,9.87
2022-09-11T16:53:59.719Z,15.47
2022-09-11T16:56:06.727Z,9.67
2022-09-11T16:58:09.053Z,12.20
2022-09-11T17:00:11.854Z,11.57
2022-09-11T17:02:13.847Z,9.73
2022-09-11T17:04:15.977Z,12.10
2022-09-11T17:06:21.827Z,9.00
2022-09-11T17:08:24.547Z,13.73
2022-09-11T17:10:26.707Z,11.20
2022-09-11T17:12:28.861Z,11.97
2022-09-11T17:14:31.018Z,10.67
2022-09-11T17:16:34.158Z,10.93
2022-09-11T17:18:37.274Z,12.97
2022-09-11T17:20:39.696Z,11.97
2022-09-11T17:22:41.956Z,11.27
2022-09-11T17:24:44.498Z,12.10
2022-09-11T17:26:48.201Z,10.87
2022-09-11T17:28:50.823Z,11.73
2022-09-11T17:30:52.843Z,12.60
2022-09-11T17:32:54.986Z,12.70
2022-09-11T17:34:58.594Z,13.57
2022-09-11T17:37:00.733Z,9.83
2022-09-11T17:39:03.589Z,13.37
2022-09-11T17:41:08.230Z,14.27
2022-09-11T17:43:13.021Z,13.33
2022-09-11T17:45:15.723Z,13.00
2022-09-11T17:47:17.864Z,12.30
2022-09-11T17:49:21.003Z,11.20
2022-09-11T17:51:25.257Z,11.37
2022-09-11T17:53:27.914Z,11.33
2022-09-11T17:55:31.949Z,11.70
2022-09-11T17:57:33.967Z,15.90
2022-09-11T17:59:36.822Z,12.50
2022-09-11T18:01:38.913Z,13.97
2022-09-11T18:03:40.893Z,11.53
2022-09-11T18:05:44.251Z,11.40
2022-09-11T18:07:46.941Z,14.53
2022-09-11T18:09:54.117Z,16.60
2022-09-11T18:11:58.612Z,16.43
2022-09-11T18:14:00.768Z,10.73
2022-09-11T18:16:03.700Z,11.37
2022-09-11T18:18:10.821Z,15.00
2022-09-11T18:20:15.174Z,14.03
2022-09-11T18:22:19.875Z,11.60
2022-09-11T18:24:22.027Z,14.20
2022-09-11T18:26:26.359Z,12.17
2022-09-11T18:28:29.840Z,14.47
2022-09-11T18:30:32.716Z,12.83
2022-09-11T18:32:35.002Z,16.77
2022-09-11T18:34:37.242Z,10.97
2022-09-11T18:36:39.351Z,12.63
2022-09-11T18:38:41.540Z,14.10
2022-09-11T18:40:43.550Z,11.83
2022-09-11T18:42:45.689Z,11.47
2022-09-11T18:44:47.699Z,17.53
2022-09-11T18:46:53.508Z,17.70
2022-09-11T18:48:56.137Z,13.67
2022-09-11T18:51:00.483Z,11.97
2022-09-11T18:53:03.220Z,11.40
2022-09-11T18:55:05.910Z,15.90
2022-09-11T18:57:08.299Z,14.63
2022-09-11T18:59:12.065Z,15.63
2022-09-11T19:01:22.428Z,13.53
2022-09-11T19:03:25.193Z,16.50
2022-09-11T19:05:27.543Z,14.27
2022-09-11T19:07:30.142Z,17.37
2022-09-11T19:09:32.343Z,12.93
2022-09-11T19:11:34.806Z,11.93
2022-09-11T19:13:37.406Z,17.07
2022-09-11T19:15:39.910Z,14.10
2022-09-11T19:17:42.129Z,21.13
2022-09-11T19:19:48.498Z,13.53
2022-09-11T19:21:51.543Z,18.47
2022-09-11T19:23:59.550Z,11.90
2022-09-11T19:26:07.394Z,14.83
2022-09-11T19:28:11.913Z,13.10
2022-09-11T19:30:16.332Z,13.83
2022-09-11T19:32:18.532Z,10.53
2022-09-11T19:34:21.968Z,16.07
2022-09-11T19:36:26.288Z,16.80
2022-09-11T19:38:30.975Z,17.37
2022-09-11T19:40:32.970Z,14.50
2022-09-11T19:42:35.044Z,11.63
2022-09-11T19:44:37.279Z,15.23
2022-09-11T19:46:41.717Z,14.83
2022-09-11T19:48:46.008Z,16.53
2022-09-11T19:50:48.038Z,10.77
2022-09-11T19:52:50.195Z,13.90
2022-09-11T19:54:52.366Z,12.20
2022-09-11T19:56:54.515Z,14.03
2022-09-11T19:58:56.944Z,11.57
2022-09-11T20:01:00.408Z,12.87
2022-09-11T20:03:02.858Z,17.73
2022-09-11T20:05:05.374Z,10.73
2022-09-11T20:07:07.457Z,13.00
2022-09-11T20:11:32.014Z,14.93
2022-09-11T20:13:34.862Z,15.70
2022-09-11T20:15:38.313Z,19.00
2022-09-11T20:17:41.383Z,17.37
2022-09-11T20:19:45.007Z,14.00
2022-09-11T20:21:47.183Z,14.73
2022-09-11T20:23:54.511Z,15.30
2022-09-11T20:26:17.177Z,14.40
2022-09-11T20:28:19.916Z,13.97
2022-09-11T20:30:23.084Z,20.73
2022-09-11T20:32:27.584Z,14.17
2022-09-11T20:34:31.501Z,13.80
2022-09-11T20:36:33.684Z,15.90
2022-09-11T20:38:35.986Z,14.57
2022-09-11T20:40:38.231Z,13.90
2022-09-11T20:42:40.897Z,11.40
2022-09-11T20:44:43.076Z,14.60
2022-09-11T20:46:50.758Z,12.43
2022-09-11T20:48:54.257Z,11.57
2022-09-11T20:51:10.287Z,12.10
2022-09-11T20:53:12.436Z,12.00
2022-09-11T20:55:14.510Z,10.20
2022-09-11T20:57:16.560Z,14.90
2022-09-11T20:59:18.634Z,18.13
2022-09-11T21:01:23.165Z,14.23
2022-09-11T21:03:26.213Z,11.97
2022-09-11T21:05:28.477Z,11.80
2022-09-11T21:07:31.957Z,14.47
2022-09-11T21:09:34.076Z,17.23
2022-09-11T21:11:36.431Z,17.80
2022-09-11T21:13:40.578Z,9.73
2022-09-11T21:15:44.237Z,13.03
2022-09-11T21:17:49.188Z,10.63
2022-09-11T21:19:55.448Z,12.33
2022-09-11T21:21:59.291Z,16.07
2022-09-11T21:24:04.420Z,12.50
2022-09-11T21:26:07.945Z,14.60
2022-09-11T21:28:09.961Z,11.20
2022-09-11T21:30:12.589Z,11.97
2022-09-11T21:32:14.732Z,11.57
2022-09-11T21:34:17.027Z,12.10
2022-09-11T21:36:19.150Z,18.23
2022-09-11T21:38:28.602Z,16.40
2022-09-11T21:40:31.537Z,12.10
2022-09-11T21:42:33.789Z,18.00
2022-09-11T21:44:41.776Z,21.33
2022-09-11T21:46:44.215Z,10.30
2022-09-11T21:48:46.332Z,13.40
2022-09-11T21:50:48.479Z,12.87
2022-09-11T21:52:50.455Z,12.00
2022-09-11T21:54:54.720Z,12.53
2022-09-11T21:56:56.963Z,12.67
2022-09-11T21:59:00.131Z,10.50
2022-09-11T22:01:08.432Z,15.30
2022-09-11T22:03:12.285Z,15.37
2022-09-11T22:05:14.544Z,12.03
2022-09-11T22:07:17.763Z,13.80
2022-09-11T22:09:20.818Z,12.93
2022-09-11T22:11:23.199Z,16.73
2022-09-11T22:13:25.946Z,14.37
2022-09-11T22:15:27.938Z,11.50
2022-09-11T22:17:30.089Z,11.60
2022-09-11T22:19:32.288Z,16.67
2022-09-11T22:21:34.309Z,17.50
2022-09-11T22:23:36.803Z,15.73
2022-09-11T22:25:40.332Z,14.20
2022-09-11T22:27:45.554Z,13.70
2022-09-11T22:29:47.694Z,19.03
2022-09-11T22:31:49.713Z,11.90
2022-09-11T22:33:52.914Z,14.10
2022-09-11T22:35:55.054Z,13.60
2022-09-11T22:37:57.060Z,15.93
2022-09-11T22:39:59.230Z,17.80
2022-09-11T22:42:01.286Z,12.50
2022-09-11T22:44:04.228Z,18.90
2022-09-11T22:46:06.715Z,13.70
2022-09-11T22:48:09.326Z,13.10
2022-09-11T22:50:11.374Z,14.77
2022-09-11T22:52:15.778Z,13.00
2022-09-11T22:54:18.060Z,16.10
2022-09-11T22:56:20.279Z,17.70
2022-09-11T22:58:22.946Z,12.57
2022-09-11T23:00:24.935Z,13.63
2022-09-11T23:02:27.515Z,14.37
2022-09-11T23:04:29.713Z,14.27
2022-09-11T23:06:50.352Z,15.20
2022-09-11T23:08:52.805Z,14.67
2022-09-11T23:10:54.749Z,16.77
2022-09-11T23:12:56.927Z,19.53
2022-09-11T23:14:58.894Z,17.97
2022-09-11T23:17:01.205Z,19.80
2022-09-11T23:19:05.178Z,19.00
2022-09-11T23:21:07.382Z,12.60
2022-09-11T23:23:09.570Z,21.70
2022-09-11T23:25:11.631Z,21.60
2022-09-11T23:27:13.774Z,21.10
2022-09-11T23:29:15.847Z,15.50
2022-09-11T23:31:25.143Z,13.70
2022-09-11T23:33:28.081Z,16.57
2022-09-11T23:35:30.173Z,13.40
2022-09-11T23:37:32.392Z,13.63
2022-09-11T23:39:34.838Z,15.97
2022-09-11T23:41:43.553Z,14.77
2022-09-11T23:43:45.739Z,13.50
2022-09-11T23:45:48.001Z,13.70
2022-09-11T23:47:51.037Z,17.30
2022-09-11T23:49:53.079Z,15.50
2022-09-11T23:51:55.274Z,16.23
2022-09-11T23:53:57.278Z,19.60
2022-09-11T23:55:59.459Z,13.93
2022-09-11T23:58:02.150Z,18.50
